Blackfoot, Montana
Current Conditions -  °F | °C
As of 2:56 PM on Tuesday 21 Oct 2014 (Local Time) from KCTB Reporting Station
Light Rain Light Rain  
Wind Chill: 47°   Ceiling: 5500
Heat Index: 49°   Visibility: 10mi
Dew Point: 49°   Wind: 6mph
Humidity: 100%   Direction: 250°WSW
Pressure: 29.74"   Gusts: NA
Location:  48.5484°N, 112.952°W
Report Text: KCTB 212056Z AUTO 25005KT 10SM -RA FEW043 OVC055 09/09 A2974 RMK AO2 RAB09 SLP069 P0002 6//// T00940094 51001
Loading
Personal Weather Stations






























Interactive Weather Map New forecast layout! Learn more

10-Day Weather Forecast

Advertisements
Track Severe Weather on mobile